Pyote, Texas
Current Conditions -  °F | °C
As of 11:53 AM on Friday 28 Nov 2014 (Local Time) from KINK Reporting Station
Clear Clear  
Wind Chill: 67°   Ceiling: Unl
Heat Index: 67°   Visibility: 10mi
Dew Point: 25°   Wind: 14mph
Humidity: 21%   Direction: 220°SW
Pressure: 30.14"   Gusts: NA
Location:  31.53°N, 103.13°W
Report Text: KINK 281753Z AUTO 22012KT 10SM CLR 19/M04 A3014 RMK AO2 SLP185 T01941039 10194 21011 58013
Loading
Personal Weather Stations






























Interactive Weather Map New forecast layout! Learn more

10-Day Weather Forecast

Advertisements
Track Severe Weather on mobile